WXM80 ListenWXM80 Stop

You find our weather info also at:

UK Metoffice

WeatherCloud

Weather Underground

Northeastern Weather Network

AWEKAS

Citizen Weather Observer Program (CWOP)

HAMweather, WeatherForYou, PWS Weather


Weather Underground History page Text

Daily Summary for October 12, 2017 Units:  English    Metric   Both
« Previous Day
Next Day »
Daily Weekly Monthly Yearly Custom
  High: Low: Average:
Temperature: 65.4 °F 55.2 °F 59.8 °F
Dew Point: 58.1 °F 48.1 °F 52.9 °F
Humidity: 94 % 62 % 78 %
Wind Speed: 12.0 mph 0.3 mph 4.6 mph
Wind Gust: 22.0 mph - -
Wind:- - East
Pressure: 30.39 in 30.12 in -
Precipitation: 0.07 in    
Historical Graphs
 
 
Tabular Data for October 12, 2017
Time Temperature Dew Point Pressure Wind Wind Speed Wind Gust Humidity Rainfall Rate (Hourly)
00:01 61.7 °F 55.5 °F 30.13 in East 1.0 mph 2.3 mph 80 % 0.00 in
00:06 61.7 °F 55.8 °F 30.16 in ESE 1.7 mph 2.3 mph 81 % 0.00 in
00:11 61.7 °F 56.1 °F 30.13 in East 2.2 mph 4.6 mph 82 % 0.00 in
00:16 61.6 °F 56.0 °F 30.13 in East 2.8 mph 4.6 mph 82 % 0.00 in
00:21 61.7 °F 56.1 °F 30.13 in East 2.4 mph 3.5 mph 82 % 0.00 in
00:26 61.7 °F 56.1 °F 30.12 in SE 2.2 mph 4.0 mph 82 % 0.00 in
00:31 61.7 °F 56.5 °F 30.13 in ESE 1.1 mph 3.5 mph 83 % 0.00 in
00:37 61.7 °F 56.5 °F 30.13 in ESE 1.1 mph 2.3 mph 83 % 0.00 in
00:42 61.7 °F 56.8 °F 30.14 in East 1.6 mph 2.3 mph 84 % 0.00 in
00:46 61.7 °F 56.8 °F 30.14 in ESE 1.2 mph 2.3 mph 84 % 0.00 in
00:51 61.8 °F 56.9 °F 30.14 in East 2.1 mph 3.5 mph 84 % 0.00 in
00:56 61.8 °F 56.9 °F 30.14 in East 3.3 mph 3.5 mph 84 % 0.00 in
01:02 61.8 °F 56.9 °F 30.14 in East 2.3 mph 4.6 mph 84 % 0.00 in
01:07 61.9 °F 57.0 °F 30.19 in East 2.8 mph 4.6 mph 84 % 0.00 in
01:12 62.0 °F 56.8 °F 30.19 in East 2.8 mph 6.9 mph 83 % 0.00 in
01:17 62.0 °F 56.8 °F 30.18 in East 5.0 mph 8.1 mph 83 % 0.00 in
01:22 62.1 °F 56.9 °F 30.20 in East 4.0 mph 6.9 mph 83 % 0.00 in
01:27 62.2 °F 56.6 °F 30.20 in ENE 1.8 mph 3.5 mph 82 % 0.00 in
01:32 62.2 °F 56.6 °F 30.20 in SE 2.2 mph 5.0 mph 82 % 0.00 in
01:37 62.2 °F 57.0 °F 30.20 in East 2.3 mph 3.5 mph 83 % 0.00 in
01:42 62.2 °F 57.3 °F 30.16 in East 3.7 mph 5.0 mph 84 % 0.00 in
01:47 61.9 °F 57.0 °F 30.20 in East 3.1 mph 5.0 mph 84 % 0.00 in
01:52 61.7 °F 57.5 °F 30.21 in East 0.9 mph 2.3 mph 86 % 0.01 in
01:57 61.4 °F 57.5 °F 30.21 in East 1.3 mph 3.5 mph 87 % 0.01 in
02:02 61.2 °F 57.3 °F 30.21 in ENE 2.8 mph 4.6 mph 87 % 0.01 in
02:07 60.9 °F 57.3 °F 30.16 in East 1.1 mph 3.5 mph 88 % 0.01 in
02:12 60.7 °F 57.1 °F 30.17 in ESE 0.6 mph 2.3 mph 88 % 0.01 in
02:18 60.6 °F 57.3 °F 30.17 in East 1.8 mph 3.5 mph 89 % 0.01 in
02:23 60.5 °F 57.2 °F 30.16 in ESE 2.2 mph 3.5 mph 89 % 0.01 in
02:28 60.4 °F 57.5 °F 30.17 in ESE 0.5 mph 2.3 mph 90 % 0.02 in
02:33 60.3 °F 57.4 °F 30.19 in SSE 1.9 mph 3.5 mph 90 % 0.02 in
02:38 60.2 °F 57.3 °F 30.21 in East 2.4 mph 4.6 mph 90 % 0.02 in
02:43 60.1 °F 57.5 °F 30.17 in ESE 1.2 mph 3.5 mph 91 % 0.02 in
02:48 60.0 °F 57.4 °F 30.16 in East 2.4 mph 3.5 mph 91 % 0.02 in
02:53 60.0 °F 57.4 °F 30.20 in ESE 1.7 mph 3.5 mph 91 % 0.01 in
02:58 60.0 °F 57.7 °F 30.20 in East 3.7 mph 5.0 mph 92 % 0.02 in
03:03 60.0 °F 57.7 °F 30.16 in East 2.5 mph 3.5 mph 92 % 0.02 in
03:08 60.0 °F 57.7 °F 30.16 in East 2.1 mph 4.6 mph 92 % 0.02 in
03:14 60.0 °F 57.7 °F 30.16 in ESE 3.4 mph 5.8 mph 92 % 0.02 in
03:19 60.0 °F 57.7 °F 30.20 in East 3.3 mph 5.0 mph 92 % 0.02 in
03:24 60.1 °F 57.8 °F 30.16 in East 5.1 mph 8.1 mph 92 % 0.01 in
03:29 60.0 °F 57.4 °F 30.16 in ESE 4.2 mph 6.9 mph 91 % 0.01 in
03:34 59.9 °F 57.3 °F 30.21 in East 5.1 mph 6.9 mph 91 % 0.01 in
03:39 59.9 °F 57.3 °F 30.21 in ESE 4.8 mph 7.0 mph 91 % 0.01 in
03:44 60.0 °F 57.7 °F 30.21 in East 2.5 mph 3.5 mph 92 % 0.01 in
03:49 60.0 °F 57.7 °F 30.17 in East 4.2 mph 6.0 mph 92 % 0.01 in
03:54 59.9 °F 57.6 °F 30.18 in ESE 3.3 mph 5.8 mph 92 % 0.01 in
03:59 59.8 °F 57.8 °F 30.18 in East 2.4 mph 4.6 mph 93 % 0.01 in
04:04 59.8 °F 57.8 °F 30.22 in East 2.5 mph 5.0 mph 93 % 0.01 in
04:09 59.8 °F 57.8 °F 30.22 in ESE 2.6 mph 5.0 mph 93 % 0.01 in
04:14 59.7 °F 57.7 °F 30.18 in East 2.7 mph 5.8 mph 93 % 0.01 in
04:20 59.7 °F 57.7 °F 30.17 in East 3.5 mph 5.0 mph 93 % 0.02 in
04:25 59.7 °F 57.7 °F 30.17 in East 5.9 mph 8.1 mph 93 % 0.02 in
04:30 59.8 °F 58.1 °F 30.22 in ENE 6.0 mph 9.2 mph 94 % 0.02 in
04:35 59.7 °F 57.7 °F 30.20 in East 8.7 mph 13.8 mph 93 % 0.02 in
04:40 59.6 °F 57.6 °F 30.21 in ENE 10.5 mph 13.8 mph 93 % 0.02 in
04:45 59.6 °F 57.6 °F 30.20 in ENE 7.2 mph 11.5 mph 93 % 0.02 in
04:50 59.6 °F 57.6 °F 30.20 in East 6.4 mph 9.0 mph 93 % 0.03 in
04:55 59.5 °F 57.2 °F 30.21 in ENE 6.0 mph 6.9 mph 92 % 0.03 in
05:00 59.6 °F 57.6 °F 30.21 in East 7.3 mph 11.5 mph 93 % 0.02 in
05:05 59.8 °F 57.5 °F 30.25 in ENE 9.4 mph 15.0 mph 92 % 0.02 in
05:10 59.8 °F 57.5 °F 30.25 in ENE 10.8 mph 15.0 mph 92 % 0.02 in
05:15 59.8 °F 57.2 °F 30.25 in ENE 10.0 mph 13.8 mph 91 % 0.01 in
05:20 59.8 °F 56.6 °F 30.20 in ENE 10.7 mph 13.8 mph 89 % 0.01 in
05:40 59.9 °F 57.0 °F 30.24 in ENE 9.0 mph 14.0 mph 90 % 0.00 in
05:50 59.6 °F 56.7 °F 30.22 in ENE 6.0 mph 15.0 mph 90 % 0.00 in
05:55 59.6 °F 56.7 °F 30.25 in ENE 12.0 mph 20.0 mph 90 % 0.01 in
06:05 59.3 °F 56.1 °F 30.26 in ENE 12.0 mph 22.0 mph 89 % 0.00 in
06:10 59.3 °F 56.1 °F 30.25 in ENE 12.0 mph 19.0 mph 89 % 0.00 in
06:15 59.3 °F 56.1 °F 30.22 in ENE 7.0 mph 19.0 mph 89 % 0.00 in
06:25 59.3 °F 55.4 °F 30.26 in ENE 12.0 mph 18.0 mph 87 % 0.00 in
06:30 59.3 °F 55.4 °F 30.22 in ENE 9.0 mph 15.0 mph 87 % 0.00 in
06:35 59.3 °F 55.1 °F 30.21 in ENE 12.0 mph 17.0 mph 86 % 0.00 in
06:40 59.3 °F 55.1 °F 30.22 in East 9.0 mph 17.0 mph 86 % 0.00 in
06:45 59.2 °F 54.7 °F 30.23 in ENE 10.0 mph 16.0 mph 85 % 0.00 in
06:50 59.1 °F 54.3 °F 30.23 in ENE 12.0 mph 17.0 mph 84 % 0.00 in
06:55 59.1 °F 54.3 °F 30.23 in ENE 9.0 mph 16.0 mph 84 % 0.00 in
07:05 58.9 °F 54.1 °F 30.23 in ENE 9.0 mph 20.0 mph 84 % 0.00 in
07:10 58.8 °F 54.3 °F 30.22 in ENE 8.0 mph 18.0 mph 85 % 0.00 in
07:15 58.7 °F 53.9 °F 30.24 in ENE 8.0 mph 16.0 mph 84 % 0.00 in
07:20 58.6 °F 53.5 °F 30.24 in ENE 10.0 mph 15.0 mph 83 % 0.00 in
07:25 58.6 °F 53.5 °F 30.24 in ENE 10.0 mph 14.0 mph 83 % 0.00 in
07:30 58.6 °F 53.8 °F 30.24 in ENE 6.0 mph 15.0 mph 84 % 0.00 in
07:35 58.5 °F 53.7 °F 30.25 in East 9.0 mph 14.0 mph 84 % 0.00 in
07:40 58.5 °F 53.7 °F 30.25 in East 9.0 mph 11.0 mph 84 % 0.00 in
07:45 58.5 °F 53.7 °F 30.25 in ENE 9.0 mph 16.0 mph 84 % 0.00 in
07:50 58.5 °F 53.4 °F 30.25 in ENE 9.0 mph 19.0 mph 83 % 0.00 in
07:55 58.5 °F 53.7 °F 30.26 in ENE 7.0 mph 16.0 mph 84 % 0.00 in
08:05 58.4 °F 53.9 °F 30.26 in East 6.0 mph 17.0 mph 85 % 0.00 in
08:10 58.4 °F 53.6 °F 30.26 in ENE 9.0 mph 15.0 mph 84 % 0.00 in
08:15 58.4 °F 53.6 °F 30.26 in ENE 12.0 mph 22.0 mph 84 % 0.00 in
08:20 58.4 °F 53.6 °F 30.27 in ENE 12.0 mph 17.0 mph 84 % 0.00 in
08:25 58.2 °F 53.7 °F 30.27 in ENE 10.0 mph 17.0 mph 85 % 0.00 in
08:30 58.1 °F 53.6 °F 30.27 in ENE 10.0 mph 16.0 mph 85 % 0.00 in
08:35 58.1 °F 53.6 °F 30.27 in ENE 8.0 mph 13.0 mph 85 % 0.00 in
08:40 58.1 °F 53.9 °F 30.27 in ENE 10.0 mph 16.0 mph 86 % 0.00 in
08:45 58.1 °F 53.6 °F 30.28 in ENE 12.0 mph 19.0 mph 85 % 0.00 in
08:50 58.2 °F 53.7 °F 30.28 in ENE 9.0 mph 16.0 mph 85 % 0.00 in
08:55 58.3 °F 53.8 °F 30.28 in ENE 8.0 mph 20.0 mph 85 % 0.00 in
09:05 58.5 °F 54.0 °F 30.28 in ENE 8.0 mph 18.0 mph 85 % 0.00 in
09:10 58.6 °F 54.1 °F 30.28 in ENE 9.0 mph 16.0 mph 85 % 0.00 in
09:15 58.7 °F 54.2 °F 30.28 in ENE 12.0 mph 19.0 mph 85 % 0.00 in
09:20 58.7 °F 54.2 °F 30.28 in ENE 8.0 mph 19.0 mph 85 % 0.00 in
09:25 58.8 °F 54.0 °F 30.29 in ENE 10.0 mph 18.0 mph 84 % 0.00 in
09:30 58.7 °F 53.5 °F 30.29 in ENE 12.0 mph 17.0 mph 83 % 0.00 in
09:35 58.7 °F 53.5 °F 30.30 in ENE 6.0 mph 17.0 mph 83 % 0.00 in
09:40 58.7 °F 53.5 °F 30.30 in ENE 10.0 mph 16.0 mph 83 % 0.00 in
09:45 58.7 °F 53.9 °F 30.30 in ENE 7.0 mph 15.0 mph 84 % 0.00 in
09:50 58.8 °F 54.0 °F 30.30 in ENE 9.0 mph 14.0 mph 84 % 0.00 in
09:55 58.8 °F 53.6 °F 30.29 in ENE 6.0 mph 16.0 mph 83 % 0.00 in
10:05 58.8 °F 53.6 °F 30.30 in ENE 8.0 mph 17.0 mph 83 % 0.00 in
10:10 58.8 °F 53.6 °F 30.35 in ENE 6.0 mph 11.0 mph 83 % 0.00 in
10:15 58.9 °F 53.7 °F 30.30 in ENE 7.0 mph 12.0 mph 83 % 0.00 in
10:20 58.8 °F 53.3 °F 30.30 in ENE 6.0 mph 16.0 mph 82 % 0.00 in
10:25 58.8 °F 53.3 °F 30.31 in ENE 9.0 mph 13.0 mph 82 % 0.00 in
10:30 58.8 °F 53.3 °F 30.30 in East 6.0 mph 11.0 mph 82 % 0.00 in
10:35 58.8 °F 53.3 °F 30.30 in East 7.0 mph 17.0 mph 82 % 0.00 in
10:44 58.9 °F 53.4 °F 30.35 in ENE 9.2 mph 22.0 mph 82 % 0.00 in
10:49 58.9 °F 53.4 °F 30.35 in East 7.3 mph 13.8 mph 82 % 0.00 in
10:52 59.0 °F 53.5 °F 30.35 in East 6.5 mph 8.1 mph 82 % 0.00 in
10:57 59.0 °F 53.5 °F 30.35 in ENE 10.3 mph 15.0 mph 82 % 0.00 in
11:02 59.1 °F 53.6 °F 30.35 in ENE 8.6 mph 15.0 mph 82 % 0.00 in
11:07 59.2 °F 53.4 °F 30.35 in East 6.7 mph 9.2 mph 81 % 0.00 in
11:12 59.2 °F 53.4 °F 30.35 in East 7.5 mph 13.8 mph 81 % 0.00 in
11:17 59.3 °F 53.8 °F 30.35 in East 9.2 mph 14.0 mph 82 % 0.00 in
11:22 59.4 °F 53.2 °F 30.36 in ENE 8.3 mph 17.3 mph 80 % 0.00 in
11:27 59.5 °F 53.3 °F 30.32 in East 5.6 mph 6.9 mph 80 % 0.00 in
11:32 59.5 °F 53.3 °F 30.35 in East 6.3 mph 8.1 mph 80 % 0.00 in
11:37 59.6 °F 53.4 °F 30.32 in East 5.4 mph 6.9 mph 80 % 0.00 in
11:42 59.6 °F 53.1 °F 30.31 in ENE 5.6 mph 10.4 mph 79 % 0.00 in
11:47 59.7 °F 53.2 °F 30.33 in East 5.6 mph 11.5 mph 79 % 0.00 in
11:52 59.9 °F 53.7 °F 30.31 in ENE 8.4 mph 9.0 mph 80 % 0.00 in
11:57 60.0 °F 53.5 °F 30.36 in ENE 6.0 mph 11.5 mph 79 % 0.00 in
12:02 60.2 °F 53.7 °F 30.36 in ENE 6.7 mph 8.1 mph 79 % 0.00 in
12:07 60.6 °F 53.7 °F 30.36 in East 6.2 mph 8.0 mph 78 % 0.00 in
12:12 60.9 °F 54.0 °F 30.36 in East 5.8 mph 6.9 mph 78 % 0.00 in
12:17 61.0 °F 53.4 °F 30.36 in ENE 5.6 mph 11.5 mph 76 % 0.00 in
12:22 61.0 °F 53.4 °F 30.32 in ENE 6.6 mph 9.0 mph 76 % 0.00 in
12:27 61.0 °F 53.0 °F 30.31 in ENE 7.3 mph 11.5 mph 75 % 0.00 in
12:32 61.2 °F 53.2 °F 30.31 in East 6.2 mph 11.5 mph 75 % 0.00 in
12:37 61.4 °F 53.4 °F 30.31 in East 5.4 mph 7.0 mph 75 % 0.00 in
12:42 62.0 °F 52.9 °F 30.32 in ENE 5.0 mph 12.7 mph 72 % 0.00 in
12:44 62.0 °F 52.9 °F 30.31 in East 6.5 mph 11.5 mph 72 % 0.00 in
12:49 62.0 °F 53.2 °F 30.35 in East 6.3 mph 11.5 mph 73 % 0.00 in
12:54 62.1 °F 53.0 °F 30.35 in East 4.8 mph 6.9 mph 72 % 0.00 in
12:59 62.1 °F 52.6 °F 30.30 in East 5.2 mph 6.9 mph 71 % 0.00 in
13:04 61.9 °F 52.4 °F 30.31 in East 3.3 mph 5.0 mph 71 % 0.00 in
13:09 61.9 °F 52.8 °F 30.30 in ENE 4.2 mph 4.6 mph 72 % 0.00 in
13:14 62.4 °F 53.3 °F 30.30 in ENE 4.9 mph 11.5 mph 72 % 0.00 in
13:19 62.3 °F 52.8 °F 30.30 in ENE 7.1 mph 11.5 mph 71 % 0.00 in
13:24 62.2 °F 52.3 °F 30.30 in East 6.0 mph 10.4 mph 70 % 0.00 in
13:29 61.9 °F 52.4 °F 30.29 in ENE 4.0 mph 5.0 mph 71 % 0.00 in
13:34 61.7 °F 52.6 °F 30.29 in NE 5.6 mph 8.1 mph 72 % 0.00 in
13:39 62.2 °F 53.4 °F 30.29 in ENE 7.4 mph 12.0 mph 73 % 0.00 in
13:44 62.5 °F 53.3 °F 30.29 in East 5.6 mph 9.2 mph 72 % 0.00 in
13:49 62.4 °F 52.1 °F 30.29 in ENE 4.2 mph 12.7 mph 69 % 0.00 in
13:54 62.7 °F 52.0 °F 30.29 in ENE 4.9 mph 10.4 mph 68 % 0.00 in
13:59 63.0 °F 52.7 °F 30.29 in ENE 6.4 mph 10.4 mph 69 % 0.00 in
14:04 63.0 °F 51.9 °F 30.29 in ENE 8.4 mph 15.0 mph 67 % 0.00 in
14:09 63.4 °F 53.4 °F 30.29 in East 4.2 mph 9.0 mph 70 % 0.00 in
14:15 63.9 °F 53.1 °F 30.28 in ENE 3.6 mph 12.7 mph 68 % 0.00 in
14:20 64.4 °F 53.2 °F 30.28 in ENE 3.9 mph 5.8 mph 67 % 0.00 in
14:25 64.8 °F 53.2 °F 30.28 in East 4.2 mph 5.8 mph 66 % 0.00 in
14:30 65.0 °F 52.9 °F 30.28 in East 3.4 mph 10.4 mph 65 % 0.00 in
14:35 65.3 °F 53.2 °F 30.28 in ENE 3.0 mph 4.6 mph 65 % 0.00 in
14:40 65.4 °F 52.9 °F 30.28 in ENE 3.3 mph 4.6 mph 64 % 0.00 in
14:45 65.4 °F 52.0 °F 30.29 in East 4.4 mph 6.0 mph 62 % 0.00 in
14:50 65.4 °F 52.5 °F 30.28 in East 4.1 mph 5.0 mph 63 % 0.00 in
14:55 65.4 °F 52.5 °F 30.27 in East 3.1 mph 6.0 mph 63 % 0.00 in
15:00 65.3 °F 51.9 °F 30.33 in East 3.0 mph 4.6 mph 62 % 0.00 in
15:05 65.2 °F 51.8 °F 30.33 in East 3.3 mph 5.0 mph 62 % 0.00 in
15:10 65.0 °F 51.7 °F 30.33 in ENE 2.5 mph 4.0 mph 62 % 0.00 in
15:16 64.9 °F 51.5 °F 30.32 in East 2.0 mph 7.0 mph 62 % 0.00 in
15:21 64.7 °F 51.4 °F 30.28 in East 3.0 mph 8.0 mph 62 % 0.00 in
15:26 64.5 °F 52.0 °F 30.32 in East 3.0 mph 12.0 mph 64 % 0.00 in
15:31 64.3 °F 51.4 °F 30.32 in East 3.0 mph 6.0 mph 63 % 0.00 in
15:36 64.0 °F 51.2 °F 30.32 in East 2.0 mph 5.0 mph 63 % 0.00 in
15:41 63.9 °F 51.5 °F 30.28 in East 2.0 mph 8.0 mph 64 % 0.00 in
15:46 63.6 °F 50.8 °F 30.28 in ENE 2.5 mph 4.0 mph 63 % 0.00 in
15:51 63.6 °F 51.2 °F 30.27 in East 3.3 mph 5.0 mph 64 % 0.00 in
15:56 63.4 °F 51.0 °F 30.27 in ENE 3.0 mph 3.5 mph 64 % 0.00 in
16:01 63.4 °F 50.6 °F 30.27 in ENE 2.6 mph 9.2 mph 63 % 0.00 in
16:06 63.2 °F 50.8 °F 30.27 in ENE 3.0 mph 9.0 mph 64 % 0.00 in
16:11 63.1 °F 50.7 °F 30.32 in ENE 3.0 mph 9.0 mph 64 % 0.00 in
16:16 63.1 °F 51.1 °F 30.27 in East 2.0 mph 6.0 mph 65 % 0.00 in
16:21 63.0 °F 51.0 °F 30.27 in East 3.0 mph 5.0 mph 65 % 0.00 in
16:26 62.9 °F 51.0 °F 30.28 in East 2.0 mph 5.0 mph 65 % 0.00 in
16:31 62.9 °F 50.5 °F 30.28 in East 3.0 mph 6.0 mph 64 % 0.00 in
16:36 62.7 °F 50.4 °F 30.29 in East 2.0 mph 7.0 mph 64 % 0.00 in
16:41 62.7 °F 50.3 °F 30.32 in East 5.0 mph 7.0 mph 64 % 0.00 in
16:46 62.6 °F 50.7 °F 30.32 in East 3.0 mph 5.0 mph 65 % 0.00 in
16:51 62.5 °F 50.2 °F 30.32 in East 2.0 mph 13.0 mph 64 % 0.00 in
16:56 62.5 °F 51.0 °F 30.32 in East 3.0 mph 6.0 mph 66 % 0.00 in
17:01 62.4 °F 50.9 °F 30.32 in East 3.0 mph 4.6 mph 66 % 0.00 in
17:06 62.3 °F 50.8 °F 30.33 in East 2.1 mph 5.8 mph 66 % 0.00 in
17:11 62.2 °F 50.7 °F 30.28 in East 2.0 mph 4.6 mph 66 % 0.00 in
17:16 62.1 °F 50.2 °F 30.28 in East 3.3 mph 4.6 mph 65 % 0.00 in
17:21 62.0 °F 50.1 °F 30.33 in East 3.3 mph 5.0 mph 65 % 0.00 in
17:26 61.9 °F 50.0 °F 30.33 in East 2.7 mph 5.8 mph 65 % 0.00 in
17:31 61.8 °F 50.7 °F 30.33 in East 3.4 mph 6.9 mph 67 % 0.00 in
17:36 61.7 °F 50.6 °F 30.33 in East 1.9 mph 4.6 mph 67 % 0.00 in
17:41 61.6 °F 50.1 °F 30.33 in East 2.8 mph 4.6 mph 66 % 0.00 in
17:46 61.5 °F 50.4 °F 30.33 in East 2.0 mph 3.5 mph 67 % 0.00 in
17:51 61.4 °F 50.3 °F 30.34 in East 2.3 mph 3.5 mph 67 % 0.00 in
17:56 61.3 °F 50.2 °F 30.34 in SE 1.6 mph 3.5 mph 67 % 0.00 in
18:01 61.2 °F 50.6 °F 30.33 in ESE 1.3 mph 3.5 mph 68 % 0.00 in
18:06 61.1 °F 50.5 °F 30.30 in East 1.2 mph 3.5 mph 68 % 0.00 in
18:12 60.9 °F 50.7 °F 30.30 in East 1.2 mph 2.3 mph 69 % 0.00 in
18:17 60.8 °F 50.2 °F 30.31 in East 1.2 mph 6.9 mph 68 % 0.00 in
18:22 60.6 °F 49.6 °F 30.31 in SE 1.6 mph 3.5 mph 67 % 0.00 in
18:27 60.4 °F 49.8 °F 30.31 in ESE 0.9 mph 3.5 mph 68 % 0.00 in
18:32 60.2 °F 49.6 °F 30.31 in SE 1.8 mph 4.6 mph 68 % 0.00 in
18:37 59.9 °F 49.3 °F 30.31 in ESE 2.3 mph 3.5 mph 68 % 0.00 in
18:42 59.6 °F 49.4 °F 30.31 in SE 0.9 mph 3.0 mph 69 % 0.00 in
18:47 59.4 °F 49.2 °F 30.31 in SE 1.3 mph 2.3 mph 69 % 0.00 in
18:52 59.2 °F 49.4 °F 30.31 in ESE 2.0 mph 3.5 mph 70 % 0.00 in
18:57 58.9 °F 49.1 °F 30.31 in SE 0.6 mph 1.2 mph 70 % 0.00 in
19:02 58.8 °F 49.0 °F 30.31 in SE 0.5 mph 1.2 mph 70 % 0.00 in
19:07 58.5 °F 49.1 °F 30.31 in ESE 1.3 mph 3.5 mph 71 % 0.00 in
19:13 58.4 °F 49.4 °F 30.31 in SE 0.8 mph 3.5 mph 72 % 0.00 in
19:18 58.1 °F 49.1 °F 30.32 in East 0.5 mph 5.8 mph 72 % 0.00 in
19:23 57.9 °F 48.9 °F 30.31 in ESE 1.2 mph 3.5 mph 72 % 0.00 in
19:28 57.8 °F 49.2 °F 30.32 in ESE 1.4 mph 5.8 mph 73 % 0.00 in
19:33 57.6 °F 49.0 °F 30.32 in ESE 1.1 mph 3.5 mph 73 % 0.00 in
19:38 57.5 °F 48.9 °F 30.32 in ESE 2.4 mph 4.6 mph 73 % 0.00 in
19:43 57.3 °F 48.7 °F 30.32 in SE 1.6 mph 4.6 mph 73 % 0.00 in
19:48 57.2 °F 48.6 °F 30.32 in East 1.8 mph 4.6 mph 73 % 0.00 in
19:53 57.1 °F 48.9 °F 30.34 in ESE 1.4 mph 4.6 mph 74 % 0.00 in
19:58 57.1 °F 48.9 °F 30.32 in ESE 1.3 mph 3.5 mph 74 % 0.00 in
20:03 56.9 °F 48.7 °F 30.32 in ESE 0.8 mph 3.5 mph 74 % 0.00 in
20:08 56.8 °F 48.6 °F 30.33 in ESE 2.2 mph 3.5 mph 74 % 0.00 in
20:13 56.8 °F 48.6 °F 30.33 in ESE 1.8 mph 4.0 mph 74 % 0.00 in
20:18 56.6 °F 48.8 °F 30.33 in SE 2.2 mph 3.5 mph 75 % 0.00 in
20:23 56.5 °F 48.3 °F 30.33 in ESE 1.3 mph 3.5 mph 74 % 0.00 in
20:28 56.4 °F 48.6 °F 30.33 in ESE 2.9 mph 6.9 mph 75 % 0.00 in
20:33 56.3 °F 48.5 °F 30.33 in ESE 0.8 mph 2.3 mph 75 % 0.00 in
20:38 56.2 °F 48.4 °F 30.34 in ESE 0.8 mph 2.3 mph 75 % 0.00 in
20:43 56.1 °F 48.3 °F 30.34 in ESE 0.7 mph 2.3 mph 75 % 0.00 in
20:48 56.0 °F 48.2 °F 30.34 in ESE 3.6 mph 10.4 mph 75 % 0.00 in
20:53 55.9 °F 48.1 °F 30.34 in SE 3.0 mph 4.0 mph 75 % 0.00 in
20:58 55.9 °F 48.4 °F 30.35 in SE 2.4 mph 4.0 mph 76 % 0.00 in
21:03 55.8 °F 48.3 °F 30.35 in ESE 1.8 mph 4.6 mph 76 % 0.00 in
21:08 55.7 °F 48.2 °F 30.35 in ESE 1.1 mph 2.3 mph 76 % 0.00 in
21:13 55.6 °F 48.2 °F 30.38 in ESE 1.1 mph 3.5 mph 76 % 0.00 in
21:18 55.5 °F 48.4 °F 30.35 in ESE 1.6 mph 3.0 mph 77 % 0.00 in
21:23 55.5 °F 48.1 °F 30.34 in ESE 2.7 mph 3.5 mph 76 % 0.00 in
21:28 55.4 °F 48.3 °F 30.34 in ESE 0.7 mph 2.3 mph 77 % 0.00 in
21:33 55.4 °F 48.3 °F 30.35 in ESE 1.2 mph 2.3 mph 77 % 0.00 in
21:38 55.4 °F 48.3 °F 30.39 in East 1.5 mph 2.3 mph 77 % 0.00 in
21:43 55.3 °F 48.2 °F 30.39 in ESE 0.9 mph 2.0 mph 77 % 0.00 in
21:44 55.3 °F 48.2 °F 30.34 in ESE 0.3 mph 3.5 mph 77 % 0.00 in
21:49 55.3 °F 48.6 °F 30.39 in ESE 1.2 mph 3.5 mph 78 % 0.00 in
21:54 55.2 °F 48.5 °F 30.39 in ESE 0.9 mph 3.5 mph 78 % 0.00 in
21:59 55.2 °F 48.5 °F 30.35 in East 1.1 mph 1.2 mph 78 % 0.00 in
22:04 55.2 °F 48.8 °F 30.38 in East 1.8 mph 5.8 mph 79 % 0.00 in
22:09 55.4 °F 49.7 °F 30.39 in East 5.0 mph 6.0 mph 81 % 0.00 in
22:14 55.7 °F 49.3 °F 30.39 in East 3.8 mph 5.0 mph 79 % 0.00 in
22:19 56.0 °F 49.2 °F 30.35 in East 5.4 mph 9.2 mph 78 % 0.00 in
22:24 56.1 °F 49.3 °F 30.39 in ENE 5.5 mph 8.0 mph 78 % 0.00 in
22:29 56.2 °F 49.4 °F 30.38 in East 3.7 mph 5.8 mph 78 % 0.00 in
22:34 56.2 °F 49.1 °F 30.38 in East 4.3 mph 6.0 mph 77 % 0.00 in
22:40 56.2 °F 49.4 °F 30.35 in East 3.3 mph 11.5 mph 78 % 0.00 in
22:44 56.3 °F 49.5 °F 30.35 in ENE 3.9 mph 4.6 mph 78 % 0.00 in
22:50 56.3 °F 49.9 °F 30.35 in East 2.8 mph 4.6 mph 79 % 0.00 in
22:55 56.2 °F 49.8 °F 30.39 in East 3.8 mph 5.8 mph 79 % 0.00 in
23:00 56.1 °F 49.7 °F 30.35 in East 3.9 mph 5.8 mph 79 % 0.00 in
23:05 56.0 °F 49.6 °F 30.35 in ESE 2.7 mph 5.8 mph 79 % 0.00 in
23:10 56.0 °F 49.6 °F 30.35 in East 4.1 mph 6.0 mph 79 % 0.00 in
23:15 56.0 °F 49.9 °F 30.35 in East 4.8 mph 7.0 mph 80 % 0.00 in
23:20 56.0 °F 49.9 °F 30.35 in East 4.1 mph 8.1 mph 80 % 0.00 in
23:25 56.1 °F 50.3 °F 30.39 in East 5.0 mph 6.9 mph 81 % 0.00 in
23:30 56.1 °F 50.3 °F 30.35 in East 4.1 mph 6.0 mph 81 % 0.00 in
23:35 56.1 °F 50.3 °F 30.35 in East 3.3 mph 4.6 mph 81 % 0.00 in
23:40 56.1 °F 50.3 °F 30.35 in East 3.5 mph 5.8 mph 81 % 0.00 in
23:45 56.1 °F 50.3 °F 30.35 in ENE 4.7 mph 9.2 mph 81 % 0.00 in
23:51 56.1 °F 50.3 °F 30.35 in ENE 1.0 mph 6.0 mph 81 % 0.00 in
23:56 56.0 °F 49.9 °F 30.35 in SE 3.2 mph 5.8 mph 80 % 0.00 in
Crab Meadow Weather
Compliments of Weather Underground - 2.75 mb

Script developed by  Jim McMurry - jmcmurry@mwt.net Adapted for the template by  Wim van der Kuil - Leuven-Template.eu

Weather Terms: Winter Weather Advisory - Hazardous winter weather conditions are occurring, imminent or likely. Conditions will cause a significant inconvenience and if caution is not exercised, will result in a potential threat to life and/or property. The generic term, winter weather advisory, is used for a combination of two or more of the following events; snow, freezing rain or drizzle, sleet, blowing snow.